createdAt,value
2023-03-08T00:04:55.270Z,-2.24
2023-03-08T00:09:59.211Z,-2.11
2023-03-08T00:15:01.827Z,-2.11
2023-03-08T00:20:05.835Z,-2.07
2023-03-08T00:25:11.405Z,-2.18
2023-03-08T00:30:15.069Z,-2.31
2023-03-08T00:35:19.878Z,-2.36
2023-03-08T00:40:23.643Z,-2.50
2023-03-08T00:45:26.429Z,-2.83
2023-03-08T00:50:28.982Z,-3.14
2023-03-08T00:55:32.892Z,-3.28
2023-03-08T01:00:35.492Z,-2.92
2023-03-08T01:05:40.753Z,-2.75
2023-03-08T01:10:49.456Z,-2.62
2023-03-08T01:15:52.074Z,-2.56
2023-03-08T01:20:59.755Z,-2.65
2023-03-08T01:26:05.862Z,-2.74
2023-03-08T01:31:09.751Z,-2.79
2023-03-08T01:36:15.168Z,-2.92
2023-03-08T01:41:22.026Z,-2.88
2023-03-08T01:46:28.091Z,-2.74
2023-03-08T01:51:36.563Z,-2.72
2023-03-08T01:56:41.926Z,-2.63
2023-03-08T02:01:46.310Z,-2.76
2023-03-08T02:06:48.862Z,-2.85
2023-03-08T02:11:53.543Z,-2.89
2023-03-08T02:16:56.427Z,-2.72
2023-03-08T02:21:58.997Z,-2.67
2023-03-08T02:27:07.446Z,-2.64
2023-03-08T02:32:10.105Z,-2.79
2023-03-08T02:37:12.699Z,-2.82
2023-03-08T02:42:16.593Z,-2.82
2023-03-08T02:47:19.171Z,-2.87
2023-03-08T02:52:22.033Z,-2.93
2023-03-08T02:57:26.011Z,-2.83
2023-03-08T03:02:28.571Z,-2.74
2023-03-08T03:07:31.248Z,-2.73
2023-03-08T03:12:35.181Z,-2.57
2023-03-08T03:17:37.807Z,-2.31
2023-03-08T03:22:40.396Z,-2.11
2023-03-08T03:27:44.279Z,-2.10
2023-03-08T03:32:46.964Z,-2.08
2023-03-08T03:37:49.542Z,-2.04
2023-03-08T03:42:53.435Z,-2.02
2023-03-08T03:47:56.022Z,-1.96
2023-03-08T03:52:58.618Z,-1.91
2023-03-08T03:58:02.530Z,-1.96
2023-03-08T04:03:05.161Z,-1.84
2023-03-08T04:08:08.582Z,-1.90
2023-03-08T04:13:13.236Z,-1.88
2023-03-08T04:18:15.838Z,-1.91
2023-03-08T04:23:18.494Z,-1.79
2023-03-08T04:28:22.743Z,-1.77
2023-03-08T04:33:25.421Z,-1.78
2023-03-08T04:38:27.963Z,-1.71
2023-03-08T04:43:32.915Z,-1.68
2023-03-08T04:48:35.591Z,-1.62
2023-03-08T04:53:39.140Z,-1.60
2023-03-08T04:58:43.193Z,-1.55
2023-03-08T05:03:46.256Z,-1.55
2023-03-08T05:08:48.973Z,-1.48
2023-03-08T05:13:54.677Z,-1.40
2023-03-08T05:18:57.239Z,-1.37
2023-03-08T05:24:00.364Z,-1.35
2023-03-08T05:29:06.340Z,-1.31
2023-03-08T05:34:11.758Z,-1.35
2023-03-08T05:39:14.320Z,-1.31
2023-03-08T05:44:18.233Z,-1.23
2023-03-08T05:49:20.839Z,-1.21
2023-03-08T05:54:24.055Z,-1.16
2023-03-08T05:59:28.519Z,-1.15
2023-03-08T06:04:31.198Z,-1.13
2023-03-08T06:09:33.927Z,-1.07
2023-03-08T06:14:37.828Z,-0.95
2023-03-08T06:19:40.414Z,-0.96
2023-03-08T06:24:43.054Z,-0.99
2023-03-08T06:29:48.327Z,-1.05
2023-03-08T06:34:51.960Z,-1.01
2023-03-08T06:39:54.365Z,-0.93
2023-03-08T06:44:58.303Z,-0.98
2023-03-08T06:50:00.910Z,-1.01
2023-03-08T06:55:04.130Z,-0.90
2023-03-08T07:00:11.254Z,-0.88
2023-03-08T07:05:13.828Z,-0.78
2023-03-08T07:10:19.506Z,-0.71
2023-03-08T07:15:25.017Z,-0.58
2023-03-08T07:20:28.874Z,-0.61
2023-03-08T07:25:31.659Z,-0.54
2023-03-08T07:30:35.616Z,-0.51
2023-03-08T07:35:40.041Z,-0.43
2023-03-08T07:40:43.316Z,-0.39
2023-03-08T07:45:47.231Z,-0.38
2023-03-08T07:50:49.934Z,-0.25
2023-03-08T07:55:52.496Z,-0.16
2023-03-08T08:00:56.562Z,-0.15
2023-03-08T08:06:03.048Z,-0.13
2023-03-08T08:11:11.476Z,-0.15
2023-03-08T08:16:16.941Z,-0.06
2023-03-08T08:21:19.995Z,0.04
2023-03-08T08:26:23.404Z,0.04
2023-03-08T08:31:31.145Z,0.27
2023-03-08T08:36:33.807Z,0.44
2023-03-08T08:41:36.404Z,0.65
2023-03-08T08:46:40.723Z,0.91
2023-03-08T08:51:43.234Z,1.39
2023-03-08T08:56:45.971Z,1.88
2023-03-08T09:01:49.895Z,2.11
2023-03-08T09:06:54.898Z,1.91
2023-03-08T09:11:57.566Z,1.84
2023-03-08T09:17:01.434Z,1.93
2023-03-08T09:22:04.428Z,1.78
2023-03-08T09:27:07.633Z,1.77
2023-03-08T09:32:11.672Z,1.94
2023-03-08T09:37:14.558Z,1.81
2023-03-08T09:42:21.430Z,1.93
2023-03-08T09:47:34.480Z,1.80
2023-03-08T09:52:39.687Z,1.99
2023-03-08T09:57:49.852Z,2.11
2023-03-08T10:03:07.333Z,2.24
2023-03-08T10:08:15.233Z,2.47
2023-03-08T10:13:30.289Z,2.67
2023-03-08T10:18:39.662Z,3.27
2023-03-08T10:23:42.495Z,3.88
2023-03-08T10:28:45.192Z,-143.64
2023-03-08T10:33:53.071Z,-143.64
2023-03-08T10:39:16.116Z,-143.64
2023-03-08T10:44:33.185Z,-143.64
2023-03-08T10:49:37.084Z,-143.64
2023-03-08T10:54:40.650Z,-143.64
2023-03-08T10:59:48.784Z,-143.64
2023-03-08T11:04:55.097Z,-143.64
2023-03-08T11:10:25.905Z,-143.64
2023-03-08T11:15:31.671Z,-143.64
2023-03-08T11:20:45.339Z,-143.64
2023-03-08T11:25:51.759Z,-143.64
2023-03-08T11:31:05.945Z,-143.64
2023-03-08T11:36:18.433Z,-143.64
2023-03-08T11:41:27.118Z,-143.64
2023-03-08T11:46:40.812Z,-143.64
2023-03-08T11:51:53.800Z,-143.64
2023-03-08T11:56:59.490Z,-143.64
2023-03-08T12:02:10.877Z,-143.64
2023-03-08T12:07:20.916Z,-143.64
2023-03-08T12:12:29.164Z,-143.64
2023-03-08T12:17:36.984Z,-143.64
2023-03-08T12:22:47.556Z,-143.64
2023-03-08T12:27:57.717Z,-143.64
2023-03-08T12:33:04.233Z,-143.64
2023-03-08T12:38:33.263Z,-143.64
2023-03-08T12:43:38.126Z,-143.64
2023-03-08T12:48:50.154Z,-143.64
2023-03-08T12:54:05.458Z,-143.64
2023-03-08T12:59:28.916Z,-143.64
2023-03-08T13:04:42.448Z,-143.64
2023-03-08T13:09:54.044Z,-143.64
2023-03-08T13:15:03.133Z,-143.64
2023-03-08T13:20:15.347Z,-143.64
2023-03-08T13:25:29.538Z,-143.64
2023-03-08T13:30:35.826Z,-143.64
2023-03-08T13:35:38.520Z,-143.64
2023-03-08T13:40:51.771Z,-143.64
2023-03-08T13:45:57.319Z,-143.64
2023-03-08T13:51:00.667Z,-143.64
2023-03-08T13:56:07.031Z,-143.64
2023-03-08T14:01:12.936Z,-143.64
2023-03-08T14:06:22.155Z,-143.64
2023-03-08T14:11:29.534Z,-143.64
2023-03-08T14:16:35.183Z,-143.64
2023-03-08T14:21:38.285Z,-143.64
2023-03-08T14:26:42.398Z,-143.64
2023-03-08T14:31:57.466Z,-143.64
2023-03-08T14:37:02.208Z,-143.64
2023-03-08T14:42:23.080Z,-143.64
2023-03-08T14:47:27.225Z,-143.64
2023-03-08T14:52:31.539Z,-143.64
2023-03-08T14:57:35.550Z,-143.64
2023-03-08T15:02:38.112Z,-143.64
2023-03-08T15:07:40.764Z,-143.64
2023-03-08T15:12:45.732Z,-143.64
2023-03-08T15:17:48.411Z,-143.64
2023-03-08T15:22:53.780Z,-143.64
2023-03-08T15:27:58.072Z,-143.64
2023-03-08T15:33:02.099Z,-143.64
2023-03-08T15:38:04.970Z,-143.64
2023-03-08T15:43:09.578Z,-143.64
2023-03-08T15:48:15.007Z,-143.64
2023-03-08T15:53:29.594Z,-143.64
2023-03-08T15:58:38.342Z,-143.64
2023-03-08T16:03:40.944Z,-143.64
2023-03-08T16:08:43.532Z,-143.64
2023-03-08T16:13:49.672Z,-143.64
2023-03-08T16:18:52.292Z,-143.64
2023-03-08T16:23:54.861Z,-143.64
2023-03-08T16:28:58.777Z,-143.64
2023-03-08T16:34:03.467Z,-143.64
2023-03-08T16:39:07.089Z,-143.64
2023-03-08T16:44:19.974Z,-143.64
2023-03-08T16:49:28.393Z,-143.64
2023-03-08T16:54:31.241Z,-143.64
2023-03-08T16:59:35.178Z,-143.64
2023-03-08T17:04:37.781Z,-143.64
2023-03-08T17:09:40.862Z,-143.64
2023-03-08T17:14:45.093Z,-143.64
2023-03-08T17:19:47.753Z,-143.64
2023-03-08T17:24:50.334Z,-143.64
2023-03-08T17:29:54.438Z,-143.64
2023-03-08T17:34:57.038Z,-143.64
2023-03-08T17:39:59.642Z,-143.64
2023-03-08T17:45:06.280Z,-143.64
2023-03-08T17:50:11.007Z,-143.64
2023-03-08T17:55:13.606Z,-143.64
2023-03-08T18:00:18.327Z,-143.64
2023-03-08T18:05:20.916Z,-143.64
2023-03-08T18:10:23.865Z,-143.64
2023-03-08T18:15:27.891Z,-143.64
2023-03-08T18:20:30.445Z,-143.64
2023-03-08T18:25:33.765Z,-143.64
2023-03-08T18:30:38.887Z,-143.64
2023-03-08T18:35:41.520Z,-143.64
2023-03-08T18:40:44.157Z,-143.64
2023-03-08T18:45:55.616Z,-143.64
2023-03-08T18:51:01.814Z,-143.64
2023-03-08T18:56:05.047Z,-143.64
2023-03-08T19:01:13.521Z,-143.64
2023-03-08T19:06:16.268Z,-143.64
2023-03-08T19:11:22.083Z,-143.64
2023-03-08T19:16:27.990Z,-143.64
2023-03-08T19:21:32.387Z,-143.64
2023-03-08T19:26:41.078Z,-143.64
2023-03-08T19:31:46.910Z,-143.64
2023-03-08T19:36:50.228Z,-143.64
2023-03-08T19:41:54.747Z,-143.64
2023-03-08T19:46:59.643Z,-143.64
2023-03-08T19:52:05.101Z,-143.64
2023-03-08T19:57:07.719Z,-143.64
2023-03-08T20:02:13.868Z,-143.64
2023-03-08T20:07:16.417Z,-143.64
2023-03-08T20:12:18.975Z,-143.64
2023-03-08T20:17:23.967Z,-143.64
2023-03-08T20:22:26.540Z,-143.64
2023-03-08T20:27:29.802Z,-143.64
2023-03-08T20:32:33.881Z,-143.64
2023-03-08T20:37:36.528Z,-143.64
2023-03-08T20:42:39.108Z,-143.64
2023-03-08T20:47:43.043Z,-143.64
2023-03-08T20:52:48.096Z,-143.64
2023-03-08T20:57:52.490Z,-143.64
2023-03-08T21:02:56.463Z,-143.64
2023-03-08T21:07:59.153Z,-143.64
2023-03-08T21:13:01.753Z,-143.64
2023-03-08T21:18:05.777Z,-143.64
2023-03-08T21:23:08.302Z,-143.64
2023-03-08T21:28:10.873Z,-143.64
2023-03-08T21:33:14.870Z,-143.64
2023-03-08T21:38:17.461Z,-143.64
2023-03-08T21:43:20.070Z,-143.64
2023-03-08T21:48:24.196Z,-143.64
2023-03-08T21:53:26.743Z,-143.64
2023-03-08T21:58:29.556Z,-143.64
2023-03-08T22:03:34.707Z,-143.64
2023-03-08T22:08:37.327Z,-143.64
2023-03-08T22:13:40.132Z,-143.64
2023-03-08T22:18:44.130Z,-143.64
2023-03-08T22:23:51.531Z,-143.64
2023-03-08T22:28:55.011Z,-143.64
2023-03-08T22:34:00.433Z,-143.64
2023-03-08T22:39:03.537Z,-143.64
2023-03-08T22:44:06.587Z,-143.64
2023-03-08T22:49:12.480Z,-143.64
2023-03-08T22:54:16.878Z,-143.64
2023-03-08T22:59:19.577Z,-143.64
2023-03-08T23:04:23.527Z,-143.64
2023-03-08T23:09:26.096Z,-143.64
2023-03-08T23:14:28.840Z,-143.64
2023-03-08T23:19:32.818Z,-143.64
2023-03-08T23:24:35.472Z,-143.64
2023-03-08T23:29:38.397Z,-143.64
2023-03-08T23:34:44.132Z,-143.64
2023-03-08T23:39:46.685Z,-143.64
2023-03-08T23:44:49.251Z,-143.64
2023-03-08T23:49:53.705Z,-143.64
2023-03-08T23:54:56.312Z,-143.64
2023-03-08T23:59:59.414Z,-143.64
